sensor_id;sensor_type;location;lat;lon;timestamp;P1;durP1;ratioP1;P2;durP2;ratioP2
37299;SDS011;23184;51.902;12.836;2024-03-25T00:01:53;8.13;;;3.97;;
37299;SDS011;23184;51.902;12.836;2024-03-25T00:04:19;13.07;;;5.07;;
37299;SDS011;23184;51.902;12.836;2024-03-25T00:06:47;10.60;;;5.55;;
37299;SDS011;23184;51.902;12.836;2024-03-25T00:09:12;11.77;;;5.57;;
37299;SDS011;23184;51.902;12.836;2024-03-25T00:11:39;8.38;;;5.03;;
37299;SDS011;23184;51.902;12.836;2024-03-25T00:14:05;9.50;;;5.97;;
37299;SDS011;23184;51.902;12.836;2024-03-25T00:16:31;7.70;;;4.70;;
37299;SDS011;23184;51.902;12.836;2024-03-25T00:18:56;8.63;;;5.10;;
37299;SDS011;23184;51.902;12.836;2024-03-25T00:21:22;9.10;;;5.60;;
37299;SDS011;23184;51.902;12.836;2024-03-25T00:23:47;8.75;;;5.20;;
37299;SDS011;23184;51.902;12.836;2024-03-25T00:26:12;8.18;;;5.13;;
37299;SDS011;23184;51.902;12.836;2024-03-25T00:28:38;9.18;;;5.45;;
37299;SDS011;23184;51.902;12.836;2024-03-25T00:31:04;9.75;;;5.88;;
37299;SDS011;23184;51.902;12.836;2024-03-25T00:33:29;10.98;;;5.82;;
37299;SDS011;23184;51.902;12.836;2024-03-25T00:35:54;10.18;;;5.40;;
37299;SDS011;23184;51.902;12.836;2024-03-25T00:38:20;11.25;;;7.07;;
37299;SDS011;23184;51.902;12.836;2024-03-25T00:40:46;10.52;;;7.03;;
37299;SDS011;23184;51.902;12.836;2024-03-25T00:43:11;14.25;;;8.13;;
37299;SDS011;23184;51.902;12.836;2024-03-25T00:45:37;14.23;;;7.35;;
37299;SDS011;23184;51.902;12.836;2024-03-25T00:48:03;15.32;;;7.82;;
37299;SDS011;23184;51.902;12.836;2024-03-25T00:50:28;12.18;;;7.53;;
37299;SDS011;23184;51.902;12.836;2024-03-25T00:52:54;10.52;;;6.28;;
37299;SDS011;23184;51.902;12.836;2024-03-25T00:55:19;10.93;;;6.28;;
37299;SDS011;23184;51.902;12.836;2024-03-25T00:57:45;9.25;;;5.80;;
37299;SDS011;23184;51.902;12.836;2024-03-25T01:00:11;9.82;;;5.40;;
37299;SDS011;23184;51.902;12.836;2024-03-25T01:02:37;11.43;;;6.35;;
37299;SDS011;23184;51.902;12.836;2024-03-25T01:05:03;11.68;;;6.38;;
37299;SDS011;23184;51.902;12.836;2024-03-25T01:07:30;9.98;;;5.72;;
37299;SDS011;23184;51.902;12.836;2024-03-25T01:09:55;10.95;;;6.20;;
37299;SDS011;23184;51.902;12.836;2024-03-25T01:12:21;10.98;;;6.25;;
37299;SDS011;23184;51.902;12.836;2024-03-25T01:14:46;13.63;;;6.95;;
37299;SDS011;23184;51.902;12.836;2024-03-25T01:17:12;12.98;;;5.88;;
37299;SDS011;23184;51.902;12.836;2024-03-25T01:19:37;11.45;;;6.20;;
37299;SDS011;23184;51.902;12.836;2024-03-25T01:22:03;10.05;;;5.18;;
37299;SDS011;23184;51.902;12.836;2024-03-25T01:24:29;9.38;;;5.28;;
37299;SDS011;23184;51.902;12.836;2024-03-25T01:26:55;10.07;;;5.68;;
37299;SDS011;23184;51.902;12.836;2024-03-25T01:29:21;8.18;;;5.13;;
37299;SDS011;23184;51.902;12.836;2024-03-25T01:31:46;8.75;;;4.88;;
37299;SDS011;23184;51.902;12.836;2024-03-25T01:34:12;9.73;;;4.85;;
37299;SDS011;23184;51.902;12.836;2024-03-25T01:36:37;7.07;;;4.20;;
37299;SDS011;23184;51.902;12.836;2024-03-25T01:39:04;9.23;;;4.22;;
37299;SDS011;23184;51.902;12.836;2024-03-25T01:41:30;6.40;;;4.07;;
37299;SDS011;23184;51.902;12.836;2024-03-25T01:43:55;7.20;;;4.38;;
37299;SDS011;23184;51.902;12.836;2024-03-25T01:46:21;6.55;;;4.07;;
37299;SDS011;23184;51.902;12.836;2024-03-25T01:48:47;11.88;;;4.47;;
37299;SDS011;23184;51.902;12.836;2024-03-25T01:51:15;5.88;;;3.47;;
37299;SDS011;23184;51.902;12.836;2024-03-25T01:53:42;7.20;;;3.17;;
37299;SDS011;23184;51.902;12.836;2024-03-25T01:56:09;6.78;;;3.25;;
37299;SDS011;23184;51.902;12.836;2024-03-25T01:58:35;5.60;;;3.22;;
37299;SDS011;23184;51.902;12.836;2024-03-25T02:01:02;4.78;;;2.85;;
37299;SDS011;23184;51.902;12.836;2024-03-25T02:03:28;5.97;;;3.30;;
37299;SDS011;23184;51.902;12.836;2024-03-25T02:05:55;6.30;;;3.38;;
37299;SDS011;23184;51.902;12.836;2024-03-25T02:08:26;6.60;;;3.90;;
37299;SDS011;23184;51.902;12.836;2024-03-25T02:10:52;4.93;;;3.03;;
37299;SDS011;23184;51.902;12.836;2024-03-25T02:13:20;7.45;;;3.20;;
37299;SDS011;23184;51.902;12.836;2024-03-25T02:15:46;10.27;;;3.80;;
37299;SDS011;23184;51.902;12.836;2024-03-25T02:18:15;6.47;;;3.28;;
37299;SDS011;23184;51.902;12.836;2024-03-25T02:20:41;6.13;;;3.38;;
37299;SDS011;23184;51.902;12.836;2024-03-25T02:23:07;10.85;;;3.47;;
37299;SDS011;23184;51.902;12.836;2024-03-25T02:25:35;8.18;;;3.72;;
37299;SDS011;23184;51.902;12.836;2024-03-25T02:28:03;6.05;;;4.10;;
37299;SDS011;23184;51.902;12.836;2024-03-25T02:30:28;6.70;;;4.25;;
37299;SDS011;23184;51.902;12.836;2024-03-25T02:32:54;12.35;;;3.97;;
37299;SDS011;23184;51.902;12.836;2024-03-25T02:35:19;8.73;;;4.60;;
37299;SDS011;23184;51.902;12.836;2024-03-25T02:37:47;12.00;;;4.72;;
37299;SDS011;23184;51.902;12.836;2024-03-25T02:40:13;8.85;;;4.53;;
37299;SDS011;23184;51.902;12.836;2024-03-25T02:42:39;10.15;;;4.07;;
37299;SDS011;23184;51.902;12.836;2024-03-25T02:45:05;6.97;;;4.35;;
37299;SDS011;23184;51.902;12.836;2024-03-25T02:47:31;10.63;;;4.18;;
37299;SDS011;23184;51.902;12.836;2024-03-25T02:49:56;8.57;;;3.88;;
37299;SDS011;23184;51.902;12.836;2024-03-25T02:52:22;5.53;;;3.22;;
37299;SDS011;23184;51.902;12.836;2024-03-25T02:54:47;4.60;;;3.03;;
37299;SDS011;23184;51.902;12.836;2024-03-25T02:57:13;7.80;;;3.45;;
37299;SDS011;23184;51.902;12.836;2024-03-25T02:59:38;5.57;;;2.60;;
37299;SDS011;23184;51.902;12.836;2024-03-25T03:02:04;4.60;;;2.63;;
37299;SDS011;23184;51.902;12.836;2024-03-25T03:04:30;5.78;;;2.97;;
37299;SDS011;23184;51.902;12.836;2024-03-25T03:06:55;7.00;;;2.60;;
37299;SDS011;23184;51.902;12.836;2024-03-25T03:09:21;5.55;;;2.10;;
37299;SDS011;23184;51.902;12.836;2024-03-25T03:11:47;5.68;;;2.17;;
37299;SDS011;23184;51.902;12.836;2024-03-25T03:14:13;4.50;;;2.03;;
37299;SDS011;23184;51.902;12.836;2024-03-25T03:16:38;7.00;;;2.22;;
37299;SDS011;23184;51.902;12.836;2024-03-25T03:19:04;3.38;;;2.15;;
37299;SDS011;23184;51.902;12.836;2024-03-25T03:21:29;17.85;;;4.15;;
37299;SDS011;23184;51.902;12.836;2024-03-25T03:23:56;6.72;;;2.40;;
37299;SDS011;23184;51.902;12.836;2024-03-25T03:26:21;7.20;;;2.05;;
37299;SDS011;23184;51.902;12.836;2024-03-25T03:28:51;5.72;;;2.03;;
37299;SDS011;23184;51.902;12.836;2024-03-25T03:31:20;2.95;;;2.00;;
37299;SDS011;23184;51.902;12.836;2024-03-25T03:33:49;5.85;;;2.17;;
37299;SDS011;23184;51.902;12.836;2024-03-25T03:36:15;4.07;;;2.10;;
37299;SDS011;23184;51.902;12.836;2024-03-25T03:38:42;6.15;;;2.10;;
37299;SDS011;23184;51.902;12.836;2024-03-25T03:41:07;5.63;;;1.70;;
37299;SDS011;23184;51.902;12.836;2024-03-25T03:43:33;6.95;;;2.10;;
37299;SDS011;23184;51.902;12.836;2024-03-25T03:45:58;5.70;;;2.80;;
37299;SDS011;23184;51.902;12.836;2024-03-25T03:48:24;4.15;;;2.33;;
37299;SDS011;23184;51.902;12.836;2024-03-25T03:50:49;5.72;;;2.47;;
37299;SDS011;23184;51.902;12.836;2024-03-25T03:53:15;5.10;;;2.13;;
37299;SDS011;23184;51.902;12.836;2024-03-25T03:55:40;6.25;;;2.75;;
37299;SDS011;23184;51.902;12.836;2024-03-25T03:58:05;6.65;;;2.30;;
37299;SDS011;23184;51.902;12.836;2024-03-25T04:00:34;4.70;;;2.17;;
37299;SDS011;23184;51.902;12.836;2024-03-25T04:03:00;7.65;;;2.63;;
37299;SDS011;23184;51.902;12.836;2024-03-25T04:05:29;5.60;;;2.33;;
37299;SDS011;23184;51.902;12.836;2024-03-25T04:07:55;7.20;;;2.15;;
37299;SDS011;23184;51.902;12.836;2024-03-25T04:10:21;5.72;;;2.22;;
37299;SDS011;23184;51.902;12.836;2024-03-25T04:12:47;7.93;;;2.63;;
37299;SDS011;23184;51.902;12.836;2024-03-25T04:15:13;9.10;;;2.20;;
37299;SDS011;23184;51.902;12.836;2024-03-25T04:17:43;3.92;;;2.00;;
37299;SDS011;23184;51.902;12.836;2024-03-25T04:20:10;9.88;;;2.55;;
37299;SDS011;23184;51.902;12.836;2024-03-25T04:22:36;6.07;;;2.50;;
37299;SDS011;23184;51.902;12.836;2024-03-25T04:25:05;6.40;;;2.20;;
37299;SDS011;23184;51.902;12.836;2024-03-25T04:27:31;7.28;;;2.75;;
37299;SDS011;23184;51.902;12.836;2024-03-25T04:29:56;12.43;;;4.65;;
37299;SDS011;23184;51.902;12.836;2024-03-25T04:32:22;6.03;;;2.35;;
37299;SDS011;23184;51.902;12.836;2024-03-25T04:34:47;5.05;;;1.98;;
37299;SDS011;23184;51.902;12.836;2024-03-25T04:37:13;10.02;;;2.40;;
37299;SDS011;23184;51.902;12.836;2024-03-25T04:39:39;7.13;;;2.55;;
37299;SDS011;23184;51.902;12.836;2024-03-25T04:42:05;17.63;;;5.65;;
37299;SDS011;23184;51.902;12.836;2024-03-25T04:44:31;13.48;;;5.47;;
37299;SDS011;23184;51.902;12.836;2024-03-25T04:46:56;11.23;;;3.60;;
37299;SDS011;23184;51.902;12.836;2024-03-25T04:49:21;15.90;;;4.90;;
37299;SDS011;23184;51.902;12.836;2024-03-25T04:51:47;17.77;;;7.25;;
37299;SDS011;23184;51.902;12.836;2024-03-25T04:54:13;15.05;;;6.30;;
37299;SDS011;23184;51.902;12.836;2024-03-25T04:56:39;5.20;;;2.78;;
37299;SDS011;23184;51.902;12.836;2024-03-25T04:59:05;8.57;;;2.88;;
37299;SDS011;23184;51.902;12.836;2024-03-25T05:01:31;7.07;;;3.22;;
37299;SDS011;23184;51.902;12.836;2024-03-25T05:03:56;11.98;;;3.40;;
37299;SDS011;23184;51.902;12.836;2024-03-25T05:06:21;7.43;;;3.03;;
37299;SDS011;23184;51.902;12.836;2024-03-25T05:08:47;5.75;;;2.65;;
37299;SDS011;23184;51.902;12.836;2024-03-25T05:11:12;8.23;;;3.03;;
37299;SDS011;23184;51.902;12.836;2024-03-25T05:13:38;5.90;;;2.70;;
37299;SDS011;23184;51.902;12.836;2024-03-25T05:16:04;6.97;;;3.00;;
37299;SDS011;23184;51.902;12.836;2024-03-25T05:18:29;6.28;;;2.78;;
37299;SDS011;23184;51.902;12.836;2024-03-25T05:20:55;7.25;;;3.08;;
37299;SDS011;23184;51.902;12.836;2024-03-25T05:23:20;9.10;;;2.63;;
37299;SDS011;23184;51.902;12.836;2024-03-25T05:25:46;9.18;;;3.05;;
37299;SDS011;23184;51.902;12.836;2024-03-25T05:28:11;9.50;;;3.53;;
37299;SDS011;23184;51.902;12.836;2024-03-25T05:30:38;10.07;;;3.47;;
37299;SDS011;23184;51.902;12.836;2024-03-25T05:33:04;8.85;;;3.20;;
37299;SDS011;23184;51.902;12.836;2024-03-25T05:35:29;10.27;;;2.90;;
37299;SDS011;23184;51.902;12.836;2024-03-25T05:37:58;7.25;;;2.85;;
37299;SDS011;23184;51.902;12.836;2024-03-25T05:40:23;6.80;;;2.40;;
37299;SDS011;23184;51.902;12.836;2024-03-25T05:42:49;5.80;;;3.22;;
37299;SDS011;23184;51.902;12.836;2024-03-25T05:45:14;6.78;;;3.10;;
37299;SDS011;23184;51.902;12.836;2024-03-25T05:47:40;13.27;;;4.65;;
37299;SDS011;23184;51.902;12.836;2024-03-25T05:50:06;10.90;;;3.88;;
37299;SDS011;23184;51.902;12.836;2024-03-25T05:52:33;8.23;;;3.78;;
37299;SDS011;23184;51.902;12.836;2024-03-25T05:54:58;7.45;;;3.75;;
37299;SDS011;23184;51.902;12.836;2024-03-25T05:57:24;11.90;;;3.83;;
37299;SDS011;23184;51.902;12.836;2024-03-25T05:59:49;11.13;;;3.92;;
37299;SDS011;23184;51.902;12.836;2024-03-25T06:02:14;7.78;;;3.92;;
37299;SDS011;23184;51.902;12.836;2024-03-25T06:04:40;8.57;;;3.78;;
37299;SDS011;23184;51.902;12.836;2024-03-25T06:07:06;10.30;;;3.95;;
37299;SDS011;23184;51.902;12.836;2024-03-25T06:09:31;9.18;;;3.97;;
37299;SDS011;23184;51.902;12.836;2024-03-25T06:11:57;8.20;;;3.28;;
37299;SDS011;23184;51.902;12.836;2024-03-25T06:14:22;9.13;;;3.53;;
37299;SDS011;23184;51.902;12.836;2024-03-25T06:16:48;8.10;;;4.07;;
37299;SDS011;23184;51.902;12.836;2024-03-25T06:19:14;8.65;;;3.92;;
37299;SDS011;23184;51.902;12.836;2024-03-25T06:21:39;9.48;;;3.53;;
37299;SDS011;23184;51.902;12.836;2024-03-25T06:24:06;8.55;;;4.35;;
37299;SDS011;23184;51.902;12.836;2024-03-25T06:26:32;10.57;;;4.30;;
37299;SDS011;23184;51.902;12.836;2024-03-25T06:28:57;8.05;;;4.07;;
37299;SDS011;23184;51.902;12.836;2024-03-25T06:31:22;8.27;;;4.30;;
37299;SDS011;23184;51.902;12.836;2024-03-25T06:34:07;8.23;;;3.85;;
37299;SDS011;23184;51.902;12.836;2024-03-25T06:36:46;8.57;;;4.10;;
37299;SDS011;23184;51.902;12.836;2024-03-25T06:39:13;17.45;;;4.35;;
37299;SDS011;23184;51.902;12.836;2024-03-25T06:41:39;7.65;;;4.05;;
37299;SDS011;23184;51.902;12.836;2024-03-25T06:44:05;5.47;;;3.10;;
37299;SDS011;23184;51.902;12.836;2024-03-25T06:46:30;8.98;;;3.38;;
37299;SDS011;23184;51.902;12.836;2024-03-25T06:48:56;7.32;;;3.55;;
37299;SDS011;23184;51.902;12.836;2024-03-25T06:51:22;9.27;;;3.50;;
37299;SDS011;23184;51.902;12.836;2024-03-25T06:53:47;9.18;;;3.83;;
37299;SDS011;23184;51.902;12.836;2024-03-25T06:56:13;6.85;;;3.67;;
37299;SDS011;23184;51.902;12.836;2024-03-25T06:58:39;9.68;;;3.47;;
37299;SDS011;23184;51.902;12.836;2024-03-25T07:01:05;9.00;;;3.30;;
37299;SDS011;23184;51.902;12.836;2024-03-25T07:03:32;6.45;;;3.20;;
37299;SDS011;23184;51.902;12.836;2024-03-25T07:05:58;7.30;;;3.35;;
37299;SDS011;23184;51.902;12.836;2024-03-25T07:08:25;11.52;;;3.42;;
37299;SDS011;23184;51.902;12.836;2024-03-25T07:10:51;10.02;;;4.30;;
37299;SDS011;23184;51.902;12.836;2024-03-25T07:13:17;8.38;;;3.78;;
37299;SDS011;23184;51.902;12.836;2024-03-25T07:15:43;7.60;;;3.50;;
37299;SDS011;23184;51.902;12.836;2024-03-25T07:18:09;8.00;;;3.08;;
37299;SDS011;23184;51.902;12.836;2024-03-25T07:20:38;9.25;;;3.33;;
37299;SDS011;23184;51.902;12.836;2024-03-25T07:23:04;10.27;;;3.38;;
37299;SDS011;23184;51.902;12.836;2024-03-25T07:25:30;10.85;;;3.58;;
37299;SDS011;23184;51.902;12.836;2024-03-25T07:27:56;10.32;;;3.70;;
37299;SDS011;23184;51.902;12.836;2024-03-25T07:30:22;9.15;;;3.17;;
37299;SDS011;23184;51.902;12.836;2024-03-25T07:32:50;7.53;;;3.33;;
37299;SDS011;23184;51.902;12.836;2024-03-25T07:35:16;10.55;;;3.10;;
37299;SDS011;23184;51.902;12.836;2024-03-25T07:37:42;8.43;;;3.58;;
37299;SDS011;23184;51.902;12.836;2024-03-25T07:40:10;5.70;;;2.65;;
37299;SDS011;23184;51.902;12.836;2024-03-25T07:42:39;8.13;;;2.90;;
37299;SDS011;23184;51.902;12.836;2024-03-25T07:45:05;15.07;;;6.90;;
37299;SDS011;23184;51.902;12.836;2024-03-25T07:47:31;8.15;;;3.28;;
37299;SDS011;23184;51.902;12.836;2024-03-25T07:49:56;6.72;;;2.95;;
37299;SDS011;23184;51.902;12.836;2024-03-25T07:52:24;8.85;;;3.08;;
37299;SDS011;23184;51.902;12.836;2024-03-25T07:54:49;7.47;;;3.10;;
37299;SDS011;23184;51.902;12.836;2024-03-25T07:57:15;5.57;;;2.97;;
37299;SDS011;23184;51.902;12.836;2024-03-25T07:59:41;8.05;;;3.47;;
37299;SDS011;23184;51.902;12.836;2024-03-25T08:02:07;7.63;;;2.85;;
37299;SDS011;23184;51.902;12.836;2024-03-25T08:04:32;5.60;;;2.95;;
37299;SDS011;23184;51.902;12.836;2024-03-25T08:06:57;4.20;;;2.70;;
37299;SDS011;23184;51.902;12.836;2024-03-25T08:09:23;9.40;;;2.90;;
37299;SDS011;23184;51.902;12.836;2024-03-25T08:11:48;7.22;;;2.42;;
37299;SDS011;23184;51.902;12.836;2024-03-25T08:14:14;5.18;;;2.70;;
37299;SDS011;23184;51.902;12.836;2024-03-25T08:16:40;8.60;;;2.85;;
37299;SDS011;23184;51.902;12.836;2024-03-25T08:19:06;5.68;;;3.15;;
37299;SDS011;23184;51.902;12.836;2024-03-25T08:21:31;8.57;;;3.05;;
37299;SDS011;23184;51.902;12.836;2024-03-25T08:23:56;5.82;;;2.75;;
37299;SDS011;23184;51.902;12.836;2024-03-25T08:26:22;4.47;;;2.70;;
37299;SDS011;23184;51.902;12.836;2024-03-25T08:28:48;8.32;;;2.63;;
37299;SDS011;23184;51.902;12.836;2024-03-25T08:31:14;9.57;;;2.72;;
37299;SDS011;23184;51.902;12.836;2024-03-25T08:33:40;7.75;;;2.65;;
37299;SDS011;23184;51.902;12.836;2024-03-25T08:36:05;11.15;;;2.67;;
37299;SDS011;23184;51.902;12.836;2024-03-25T08:38:31;10.02;;;2.80;;
37299;SDS011;23184;51.902;12.836;2024-03-25T08:40:56;5.25;;;2.25;;
37299;SDS011;23184;51.902;12.836;2024-03-25T08:43:22;6.32;;;2.70;;
37299;SDS011;23184;51.902;12.836;2024-03-25T08:45:47;10.80;;;3.20;;
37299;SDS011;23184;51.902;12.836;2024-03-25T08:48:13;7.43;;;2.70;;
37299;SDS011;23184;51.902;12.836;2024-03-25T08:50:38;4.53;;;2.50;;
37299;SDS011;23184;51.902;12.836;2024-03-25T08:53:04;9.35;;;4.72;;
37299;SDS011;23184;51.902;12.836;2024-03-25T08:55:29;5.95;;;2.90;;
37299;SDS011;23184;51.902;12.836;2024-03-25T08:57:56;6.72;;;3.35;;
37299;SDS011;23184;51.902;12.836;2024-03-25T09:00:23;6.85;;;3.42;;
37299;SDS011;23184;51.902;12.836;2024-03-25T09:02:52;15.48;;;8.35;;
37299;SDS011;23184;51.902;12.836;2024-03-25T09:05:18;8.85;;;3.10;;
37299;SDS011;23184;51.902;12.836;2024-03-25T09:07:44;8.60;;;3.53;;
37299;SDS011;23184;51.902;12.836;2024-03-25T09:10:10;6.47;;;2.72;;
37299;SDS011;23184;51.902;12.836;2024-03-25T09:12:55;8.05;;;2.80;;
37299;SDS011;23184;51.902;12.836;2024-03-25T09:15:20;10.05;;;4.75;;
37299;SDS011;23184;51.902;12.836;2024-03-25T09:17:46;17.88;;;7.53;;
37299;SDS011;23184;51.902;12.836;2024-03-25T09:20:11;21.08;;;8.57;;
37299;SDS011;23184;51.902;12.836;2024-03-25T09:22:43;7.28;;;3.55;;
37299;SDS011;23184;51.902;12.836;2024-03-25T09:25:09;9.98;;;5.10;;
37299;SDS011;23184;51.902;12.836;2024-03-25T09:27:34;23.23;;;10.00;;
37299;SDS011;23184;51.902;12.836;2024-03-25T09:30:00;13.23;;;6.35;;
37299;SDS011;23184;51.902;12.836;2024-03-25T09:32:26;13.00;;;5.22;;
37299;SDS011;23184;51.902;12.836;2024-03-25T09:34:52;11.57;;;3.42;;
37299;SDS011;23184;51.902;12.836;2024-03-25T09:37:17;8.65;;;3.58;;
37299;SDS011;23184;51.902;12.836;2024-03-25T09:39:43;17.88;;;3.83;;
37299;SDS011;23184;51.902;12.836;2024-03-25T09:42:08;6.90;;;2.55;;
37299;SDS011;23184;51.902;12.836;2024-03-25T09:44:39;7.13;;;2.05;;
37299;SDS011;23184;51.902;12.836;2024-03-25T09:47:05;9.52;;;2.75;;
37299;SDS011;23184;51.902;12.836;2024-03-25T09:49:32;9.50;;;2.85;;
37299;SDS011;23184;51.902;12.836;2024-03-25T09:51:58;6.20;;;2.40;;
37299;SDS011;23184;51.902;12.836;2024-03-25T09:54:24;5.88;;;2.45;;
37299;SDS011;23184;51.902;12.836;2024-03-25T09:56:50;4.72;;;2.17;;
37299;SDS011;23184;51.902;12.836;2024-03-25T09:59:16;7.10;;;2.13;;
37299;SDS011;23184;51.902;12.836;2024-03-25T10:01:42;6.63;;;1.85;;
37299;SDS011;23184;51.902;12.836;2024-03-25T10:04:08;4.15;;;2.00;;
37299;SDS011;23184;51.902;12.836;2024-03-25T10:06:34;7.93;;;2.20;;
37299;SDS011;23184;51.902;12.836;2024-03-25T10:09:00;3.42;;;2.08;;
37299;SDS011;23184;51.902;12.836;2024-03-25T10:11:29;5.15;;;2.15;;
37299;SDS011;23184;51.902;12.836;2024-03-25T10:13:57;3.38;;;1.70;;
37299;SDS011;23184;51.902;12.836;2024-03-25T10:16:22;4.03;;;2.05;;
37299;SDS011;23184;51.902;12.836;2024-03-25T10:18:48;7.18;;;1.92;;
37299;SDS011;23184;51.902;12.836;2024-03-25T10:21:13;4.38;;;2.78;;
37299;SDS011;23184;51.902;12.836;2024-03-25T10:23:39;5.60;;;2.17;;
37299;SDS011;23184;51.902;12.836;2024-03-25T10:26:07;5.75;;;1.92;;
37299;SDS011;23184;51.902;12.836;2024-03-25T10:28:33;4.35;;;1.65;;
37299;SDS011;23184;51.902;12.836;2024-03-25T10:31:05;3.22;;;1.40;;
37299;SDS011;23184;51.902;12.836;2024-03-25T10:33:30;4.20;;;1.67;;
37299;SDS011;23184;51.902;12.836;2024-03-25T10:35:56;5.32;;;1.98;;
37299;SDS011;23184;51.902;12.836;2024-03-25T10:38:25;4.25;;;1.50;;
37299;SDS011;23184;51.902;12.836;2024-03-25T10:40:51;4.82;;;1.83;;
37299;SDS011;23184;51.902;12.836;2024-03-25T10:43:19;4.32;;;1.50;;
37299;SDS011;23184;51.902;12.836;2024-03-25T10:45:49;4.75;;;1.50;;
37299;SDS011;23184;51.902;12.836;2024-03-25T10:50:51;5.20;;;1.38;;
37299;SDS011;23184;51.902;12.836;2024-03-25T10:53:19;5.05;;;1.63;;
37299;SDS011;23184;51.902;12.836;2024-03-25T10:55:46;4.07;;;1.42;;
37299;SDS011;23184;51.902;12.836;2024-03-25T10:58:16;4.22;;;1.50;;
37299;SDS011;23184;51.902;12.836;2024-03-25T11:00:41;2.50;;;1.38;;
37299;SDS011;23184;51.902;12.836;2024-03-25T11:03:08;2.53;;;1.13;;
37299;SDS011;23184;51.902;12.836;2024-03-25T11:05:34;3.40;;;1.38;;
37299;SDS011;23184;51.902;12.836;2024-03-25T11:08:12;4.13;;;1.38;;
37299;SDS011;23184;51.902;12.836;2024-03-25T11:10:39;3.75;;;1.05;;
37299;SDS011;23184;51.902;12.836;2024-03-25T11:13:11;5.20;;;1.52;;
37299;SDS011;23184;51.902;12.836;2024-03-25T11:15:40;3.83;;;1.40;;
37299;SDS011;23184;51.902;12.836;2024-03-25T11:18:17;5.00;;;1.65;;
37299;SDS011;23184;51.902;12.836;2024-03-25T11:20:59;3.47;;;1.42;;
37299;SDS011;23184;51.902;12.836;2024-03-25T11:23:38;5.45;;;1.40;;
37299;SDS011;23184;51.902;12.836;2024-03-25T11:26:16;6.55;;;1.50;;
37299;SDS011;23184;51.902;12.836;2024-03-25T11:28:55;2.30;;;1.13;;
37299;SDS011;23184;51.902;12.836;2024-03-25T11:31:21;5.22;;;1.55;;
37299;SDS011;23184;51.902;12.836;2024-03-25T11:33:49;4.68;;;1.65;;
37299;SDS011;23184;51.902;12.836;2024-03-25T11:36:15;3.30;;;1.25;;
37299;SDS011;23184;51.902;12.836;2024-03-25T11:38:40;3.75;;;1.25;;
37299;SDS011;23184;51.902;12.836;2024-03-25T11:41:08;2.35;;;1.13;;
37299;SDS011;23184;51.902;12.836;2024-03-25T11:43:36;1.60;;;1.20;;
37299;SDS011;23184;51.902;12.836;2024-03-25T11:46:01;2.78;;;1.35;;
37299;SDS011;23184;51.902;12.836;2024-03-25T11:48:28;4.75;;;1.30;;
37299;SDS011;23184;51.902;12.836;2024-03-25T11:50:54;4.35;;;1.30;;
37299;SDS011;23184;51.902;12.836;2024-03-25T11:53:20;3.08;;;1.30;;
37299;SDS011;23184;51.902;12.836;2024-03-25T11:55:45;4.85;;;1.63;;
37299;SDS011;23184;51.902;12.836;2024-03-25T11:58:12;6.38;;;1.75;;
37299;SDS011;23184;51.902;12.836;2024-03-25T12:00:44;4.88;;;1.40;;
37299;SDS011;23184;51.902;12.836;2024-03-25T12:03:11;4.22;;;1.58;;
37299;SDS011;23184;51.902;12.836;2024-03-25T12:05:39;2.55;;;1.25;;
37299;SDS011;23184;51.902;12.836;2024-03-25T12:08:07;5.88;;;1.95;;
37299;SDS011;23184;51.902;12.836;2024-03-25T12:10:33;2.33;;;1.60;;
37299;SDS011;23184;51.902;12.836;2024-03-25T12:13:18;6.28;;;1.50;;
37299;SDS011;23184;51.902;12.836;2024-03-25T12:15:44;2.65;;;1.17;;
37299;SDS011;23184;51.902;12.836;2024-03-25T12:18:09;6.63;;;1.30;;
37299;SDS011;23184;51.902;12.836;2024-03-25T12:20:35;2.95;;;1.02;;
37299;SDS011;23184;51.902;12.836;2024-03-25T12:23:01;2.75;;;0.88;;
37299;SDS011;23184;51.902;12.836;2024-03-25T12:25:27;5.60;;;1.50;;
37299;SDS011;23184;51.902;12.836;2024-03-25T12:27:52;4.07;;;1.10;;
37299;SDS011;23184;51.902;12.836;2024-03-25T12:30:19;5.10;;;2.08;;
37299;SDS011;23184;51.902;12.836;2024-03-25T12:32:44;4.28;;;2.50;;
37299;SDS011;23184;51.902;12.836;2024-03-25T12:35:11;7.10;;;2.33;;
37299;SDS011;23184;51.902;12.836;2024-03-25T12:37:41;6.43;;;2.22;;
37299;SDS011;23184;51.902;12.836;2024-03-25T12:40:11;9.60;;;2.47;;
37299;SDS011;23184;51.902;12.836;2024-03-25T12:42:51;9.32;;;2.55;;
37299;SDS011;23184;51.902;12.836;2024-03-25T12:45:17;10.95;;;4.38;;
37299;SDS011;23184;51.902;12.836;2024-03-25T12:47:43;5.72;;;2.90;;
37299;SDS011;23184;51.902;12.836;2024-03-25T12:50:08;6.68;;;2.70;;
37299;SDS011;23184;51.902;12.836;2024-03-25T12:52:34;8.00;;;2.83;;
37299;SDS011;23184;51.902;12.836;2024-03-25T12:54:59;7.88;;;2.13;;
37299;SDS011;23184;51.902;12.836;2024-03-25T12:57:25;4.50;;;1.70;;
37299;SDS011;23184;51.902;12.836;2024-03-25T12:59:50;3.97;;;1.40;;
37299;SDS011;23184;51.902;12.836;2024-03-25T13:02:16;5.03;;;1.60;;
37299;SDS011;23184;51.902;12.836;2024-03-25T13:04:44;3.13;;;0.77;;
37299;SDS011;23184;51.902;12.836;2024-03-25T13:07:09;3.20;;;0.88;;
37299;SDS011;23184;51.902;12.836;2024-03-25T13:09:35;4.68;;;1.35;;
37299;SDS011;23184;51.902;12.836;2024-03-25T13:12:01;4.90;;;1.23;;
37299;SDS011;23184;51.902;12.836;2024-03-25T13:14:26;7.47;;;1.50;;
37299;SDS011;23184;51.902;12.836;2024-03-25T13:16:52;3.17;;;1.20;;
37299;SDS011;23184;51.902;12.836;2024-03-25T13:19:17;3.53;;;1.10;;
37299;SDS011;23184;51.902;12.836;2024-03-25T13:21:43;4.75;;;1.48;;
37299;SDS011;23184;51.902;12.836;2024-03-25T13:24:09;4.22;;;1.60;;
37299;SDS011;23184;51.902;12.836;2024-03-25T13:26:34;4.35;;;1.63;;
37299;SDS011;23184;51.902;12.836;2024-03-25T13:29:00;3.85;;;1.73;;
37299;SDS011;23184;51.902;12.836;2024-03-25T13:31:25;7.35;;;2.58;;
37299;SDS011;23184;51.902;12.836;2024-03-25T13:33:51;4.88;;;2.35;;
37299;SDS011;23184;51.902;12.836;2024-03-25T13:36:17;5.93;;;1.90;;
37299;SDS011;23184;51.902;12.836;2024-03-25T13:38:43;5.28;;;1.73;;
37299;SDS011;23184;51.902;12.836;2024-03-25T13:41:09;4.07;;;1.90;;
37299;SDS011;23184;51.902;12.836;2024-03-25T13:43:34;6.90;;;1.75;;
37299;SDS011;23184;51.902;12.836;2024-03-25T13:46:00;5.38;;;2.22;;
37299;SDS011;23184;51.902;12.836;2024-03-25T13:48:25;7.70;;;2.85;;
37299;SDS011;23184;51.902;12.836;2024-03-25T13:50:53;5.18;;;2.78;;
37299;SDS011;23184;51.902;12.836;2024-03-25T13:53:18;7.05;;;3.30;;
37299;SDS011;23184;51.902;12.836;2024-03-25T13:55:44;5.53;;;2.38;;
37299;SDS011;23184;51.902;12.836;2024-03-25T13:58:09;6.00;;;2.30;;
37299;SDS011;23184;51.902;12.836;2024-03-25T14:00:35;6.20;;;2.15;;
37299;SDS011;23184;51.902;12.836;2024-03-25T14:03:01;5.82;;;2.13;;
37299;SDS011;23184;51.902;12.836;2024-03-25T14:05:27;5.15;;;2.35;;
37299;SDS011;23184;51.902;12.836;2024-03-25T14:07:52;6.50;;;1.80;;
37299;SDS011;23184;51.902;12.836;2024-03-25T14:10:18;5.90;;;2.50;;
37299;SDS011;23184;51.902;12.836;2024-03-25T14:12:43;5.32;;;1.73;;
37299;SDS011;23184;51.902;12.836;2024-03-25T14:15:09;7.38;;;1.80;;
37299;SDS011;23184;51.902;12.836;2024-03-25T14:17:35;4.63;;;1.60;;
37299;SDS011;23184;51.902;12.836;2024-03-25T14:20:00;2.75;;;1.48;;
37299;SDS011;23184;51.902;12.836;2024-03-25T14:22:26;3.33;;;1.45;;
37299;SDS011;23184;51.902;12.836;2024-03-25T14:24:51;6.25;;;1.70;;
37299;SDS011;23184;51.902;12.836;2024-03-25T14:27:22;4.95;;;1.65;;
37299;SDS011;23184;51.902;12.836;2024-03-25T14:29:48;5.78;;;2.40;;